createdAt,value
2019-03-18T00:00:16.378Z,83.80
2019-03-18T00:02:45.794Z,83.50
2019-03-18T00:05:15.515Z,84.50
2019-03-18T00:07:44.956Z,84.20
2019-03-18T00:10:14.358Z,84.80
2019-03-18T00:12:43.846Z,84.80
2019-03-18T00:17:47.446Z,84.80
2019-03-18T00:20:28.996Z,85.40
2019-03-18T00:23:09.939Z,86.40
2019-03-18T00:25:51.672Z,85.70
2019-03-18T00:28:32.962Z,85.90
2019-03-18T00:34:18.933Z,85.90
2019-03-18T00:36:58.550Z,86.00
2019-03-18T00:39:47.029Z,85.90
2019-03-18T00:42:35.509Z,86.20
2019-03-18T00:45:23.968Z,86.70
2019-03-18T00:48:12.946Z,87.10
2019-03-18T00:51:01.770Z,87.20
2019-03-18T00:53:50.235Z,87.10
2019-03-18T00:56:39.202Z,87.00
2019-03-18T00:59:27.657Z,86.60
2019-03-18T01:02:16.750Z,86.90
2019-03-18T01:05:05.678Z,87.10
2019-03-18T01:07:54.538Z,86.30
2019-03-18T01:10:43.293Z,86.80
2019-03-18T01:13:32.144Z,86.70
2019-03-18T01:16:01.571Z,86.60
2019-03-18T01:18:50.046Z,87.40
2019-03-18T01:21:39.256Z,87.10
2019-03-18T01:24:27.716Z,87.80
2019-03-18T01:27:16.577Z,87.90
2019-03-18T01:30:05.465Z,88.10
2019-03-18T01:32:53.979Z,87.80
2019-03-18T01:35:42.755Z,88.70
2019-03-18T01:38:31.248Z,89.40
2019-03-18T01:41:19.743Z,89.50
2019-03-18T01:44:08.510Z,89.10
2019-03-18T01:46:57.039Z,89.50
2019-03-18T01:49:45.892Z,88.60
2019-03-18T01:52:34.371Z,89.00
2019-03-18T01:55:23.121Z,90.00
2019-03-18T01:58:11.610Z,89.60
2019-03-18T02:01:00.427Z,89.70
2019-03-18T02:03:29.875Z,89.20
2019-03-18T02:06:18.770Z,89.10
2019-03-18T02:09:07.613Z,88.70
2019-03-18T02:11:56.386Z,89.20
2019-03-18T02:14:37.970Z,89.10
2019-03-18T02:17:18.794Z,88.90
2019-03-18T02:19:59.888Z,88.70
2019-03-18T02:22:41.425Z,88.60
2019-03-18T02:25:22.959Z,88.00
2019-03-18T02:28:03.737Z,88.00
2019-03-18T02:30:45.350Z,88.20
2019-03-18T02:33:26.738Z,88.00
2019-03-18T02:35:56.788Z,88.10
2019-03-18T02:38:45.270Z,88.40
2019-03-18T02:41:33.720Z,88.70
2019-03-18T02:44:21.505Z,88.50
2019-03-18T02:47:10.119Z,89.10
2019-03-18T02:49:58.582Z,89.30
2019-03-18T02:52:47.073Z,90.00
2019-03-18T02:55:35.584Z,89.90
2019-03-18T02:58:23.351Z,90.20
2019-03-18T03:01:12.193Z,90.20
2019-03-18T03:04:00.684Z,90.30
2019-03-18T03:06:49.148Z,90.50
2019-03-18T03:09:37.495Z,90.60
2019-03-18T03:12:26.234Z,90.60
2019-03-18T03:15:07.919Z,90.60
2019-03-18T03:17:47.528Z,90.90
2019-03-18T03:20:35.943Z,91.10
2019-03-18T03:23:24.580Z,91.40
2019-03-18T03:26:12.914Z,91.60
2019-03-18T03:29:01.259Z,91.90
2019-03-18T03:31:49.605Z,91.90
2019-03-18T03:34:38.302Z,91.80
2019-03-18T03:37:26.971Z,91.10
2019-03-18T03:40:15.352Z,91.10
2019-03-18T03:43:03.774Z,91.20
2019-03-18T03:45:52.641Z,90.80
2019-03-18T03:48:22.488Z,90.90
2019-03-18T03:51:11.240Z,90.70
2019-03-18T03:53:40.644Z,90.70
2019-03-18T03:56:29.146Z,90.40
2019-03-18T03:59:18.432Z,90.20
2019-03-18T04:02:06.856Z,90.50
2019-03-18T04:04:55.578Z,90.60
2019-03-18T04:07:25.259Z,90.30
2019-03-18T04:10:13.943Z,90.60
2019-03-18T04:13:01.600Z,90.10
2019-03-18T04:15:43.126Z,90.00
2019-03-18T04:18:23.827Z,89.30
2019-03-18T04:21:05.089Z,88.50
2019-03-18T04:23:34.706Z,89.40
2019-03-18T04:26:23.469Z,89.20
2019-03-18T04:29:11.906Z,90.20
2019-03-18T04:31:52.827Z,90.30
2019-03-18T04:34:33.511Z,90.80
2019-03-18T04:37:14.918Z,90.80
2019-03-18T04:39:56.725Z,90.70
2019-03-18T04:42:37.690Z,91.10
2019-03-18T04:45:18.403Z,90.80
2019-03-18T04:47:59.625Z,90.80
2019-03-18T04:50:41.316Z,90.80
2019-03-18T04:53:22.247Z,90.80
2019-03-18T04:56:04.092Z,90.60
2019-03-18T04:58:45.713Z,90.20
2019-03-18T05:01:26.668Z,90.30
2019-03-18T05:04:08.223Z,90.20
2019-03-18T05:06:49.781Z,90.20
2019-03-18T05:09:19.055Z,90.20
2019-03-18T05:12:07.461Z,89.90
2019-03-18T05:14:48.212Z,90.10
2019-03-18T05:17:26.156Z,90.10
2019-03-18T05:19:48.457Z,90.10
2019-03-18T05:22:36.871Z,89.70
2019-03-18T05:25:25.427Z,88.60
2019-03-18T05:28:13.856Z,89.10
2019-03-18T05:31:02.643Z,90.10
2019-03-18T05:33:50.980Z,89.60
2019-03-18T05:36:39.419Z,89.90
2019-03-18T05:39:28.585Z,90.20
2019-03-18T05:42:17.224Z,90.60
2019-03-18T05:45:05.678Z,90.90
2019-03-18T05:47:39.435Z,90.80
2019-03-18T05:50:25.082Z,90.90
2019-03-18T05:53:13.761Z,90.90
2019-03-18T05:56:02.210Z,90.40
2019-03-18T05:58:51.176Z,90.10
2019-03-18T06:01:39.642Z,89.60
2019-03-18T06:04:28.089Z,89.00
2019-03-18T06:07:16.461Z,89.00
2019-03-18T06:10:05.454Z,89.50
2019-03-18T06:12:53.874Z,89.40
2019-03-18T06:15:35.106Z,89.60
2019-03-18T06:18:16.342Z,88.80
2019-03-18T06:20:45.670Z,86.50
2019-03-18T06:23:34.438Z,85.10
2019-03-18T06:26:22.873Z,84.30
2019-03-18T06:32:00.090Z,83.60
2019-03-18T06:34:48.512Z,84.30
2019-03-18T06:37:37.286Z,84.30
2019-03-18T06:40:25.658Z,84.50
2019-03-18T06:43:14.373Z,85.30
2019-03-18T06:46:02.669Z,85.00
2019-03-18T06:48:32.321Z,84.80
2019-03-18T06:51:20.042Z,84.50
2019-03-18T06:54:08.378Z,85.00
2019-03-18T06:56:57.015Z,85.40
2019-03-18T06:59:45.348Z,85.60
2019-03-18T07:02:33.798Z,86.10
2019-03-18T07:05:22.210Z,87.00
2019-03-18T07:08:10.646Z,87.60
2019-03-18T07:10:59.503Z,87.50
2019-03-18T07:13:47.929Z,88.00
2019-03-18T07:16:36.558Z,87.50
2019-03-18T07:19:24.996Z,88.70
2019-03-18T07:22:13.408Z,89.20
2019-03-18T07:25:01.858Z,89.60
2019-03-18T07:27:50.295Z,90.20
2019-03-18T07:30:38.647Z,88.40
2019-03-18T07:33:27.342Z,89.20
2019-03-18T07:36:15.775Z,88.40
2019-03-18T07:39:04.973Z,87.70
2019-03-18T07:41:53.427Z,87.70
2019-03-18T07:47:31.566Z,85.40
2019-03-18T07:50:20.200Z,85.60
2019-03-18T07:53:08.664Z,85.60
2019-03-18T07:55:57.821Z,86.10
2019-03-18T07:58:46.270Z,84.30
2019-03-18T08:01:34.710Z,83.50
2019-03-18T08:04:23.149Z,84.20
2019-03-18T08:07:11.987Z,82.70
2019-03-18T08:10:00.685Z,83.30
2019-03-18T08:12:49.313Z,83.10
2019-03-18T08:15:30.494Z,82.90
2019-03-18T08:18:00.014Z,83.80
2019-03-18T08:20:48.538Z,82.50
2019-03-18T08:23:36.200Z,82.40
2019-03-18T08:26:27.106Z,81.80
2019-03-18T08:29:14.639Z,82.10
2019-03-18T08:32:03.105Z,82.10
2019-03-18T08:34:44.199Z,80.90
2019-03-18T08:37:25.370Z,80.20
2019-03-18T08:46:30.765Z,79.40
2019-03-18T08:49:12.280Z,78.00
2019-03-18T08:51:53.269Z,77.30
2019-03-18T08:54:34.543Z,77.40
2019-03-18T09:00:23.975Z,77.00
2019-03-18T09:03:04.946Z,75.80
2019-03-18T09:05:46.690Z,76.30
2019-03-18T09:08:28.377Z,75.50
2019-03-18T09:11:09.564Z,75.60
2019-03-18T09:13:50.300Z,75.60
2019-03-18T09:16:31.134Z,74.80
2019-03-18T09:19:12.456Z,75.10
2019-03-18T09:21:53.875Z,73.80
2019-03-18T09:24:35.144Z,73.20
2019-03-18T09:27:05.221Z,73.50
2019-03-18T09:29:53.972Z,73.60
2019-03-18T09:32:42.331Z,71.20
2019-03-18T09:35:30.944Z,70.50
2019-03-18T09:38:19.482Z,70.40
2019-03-18T09:41:25.799Z,69.60
2019-03-18T09:44:14.446Z,68.60
2019-03-18T09:47:02.832Z,66.70
2019-03-18T09:49:51.542Z,66.50
2019-03-18T09:52:39.910Z,67.30
2019-03-18T09:55:28.318Z,68.50
2019-03-18T09:58:16.678Z,67.50
2019-03-18T10:01:05.226Z,68.40
2019-03-18T10:03:53.861Z,66.60
2019-03-18T10:06:42.277Z,66.70
2019-03-18T10:09:31.015Z,66.00
2019-03-18T10:12:19.727Z,65.70
2019-03-18T10:14:49.621Z,65.70
2019-03-18T10:17:38.069Z,65.40
2019-03-18T10:20:26.487Z,63.70
2019-03-18T10:23:15.333Z,65.10
2019-03-18T10:26:03.610Z,65.30
2019-03-18T10:28:52.762Z,63.50
2019-03-18T10:31:41.534Z,63.60
2019-03-18T10:34:29.970Z,63.70
2019-03-18T10:36:59.258Z,61.70
2019-03-18T10:39:47.697Z,60.20
2019-03-18T10:42:17.245Z,59.50
2019-03-18T10:45:04.956Z,59.80
2019-03-18T10:47:54.880Z,60.20
2019-03-18T10:53:51.246Z,60.30
2019-03-18T10:56:41.267Z,59.50
2019-03-18T10:59:30.056Z,59.00
2019-03-18T11:02:18.808Z,58.30
2019-03-18T11:05:08.311Z,57.60
2019-03-18T11:07:57.482Z,57.90
2019-03-18T11:10:46.348Z,57.60
2019-03-18T11:13:34.834Z,58.80
2019-03-18T11:16:16.211Z,59.40
2019-03-18T11:18:57.885Z,59.50
2019-03-18T11:21:39.428Z,58.40
2019-03-18T11:24:21.044Z,58.20
2019-03-18T11:27:02.372Z,58.30
2019-03-18T11:29:42.977Z,59.00
2019-03-18T11:32:24.426Z,58.70
2019-03-18T11:35:05.817Z,58.00
2019-03-18T11:37:47.268Z,57.80
2019-03-18T11:40:28.744Z,57.40
2019-03-18T11:43:09.762Z,57.20
2019-03-18T11:45:50.806Z,55.60
2019-03-18T11:51:37.314Z,54.50
2019-03-18T11:54:18.053Z,54.50
2019-03-18T11:56:58.901Z,54.30
2019-03-18T12:02:44.881Z,54.30
2019-03-18T12:05:26.480Z,54.20
2019-03-18T12:08:07.565Z,55.90
2019-03-18T12:10:49.019Z,53.60
2019-03-18T12:13:30.219Z,52.70
2019-03-18T12:16:11.574Z,50.10
2019-03-18T12:18:52.415Z,51.10
2019-03-18T12:21:33.987Z,51.60
2019-03-18T12:27:20.902Z,52.40
2019-03-18T12:30:02.460Z,50.70
2019-03-18T12:32:43.213Z,48.80
2019-03-18T12:35:24.516Z,48.50
2019-03-18T12:38:05.700Z,49.10
2019-03-18T12:43:53.722Z,48.10
2019-03-18T12:46:42.473Z,46.60
2019-03-18T12:49:30.929Z,48.90
2019-03-18T12:52:19.373Z,49.60
2019-03-18T12:55:07.819Z,49.50
2019-03-18T12:57:56.342Z,50.00
2019-03-18T13:00:26.043Z,51.40
2019-03-18T13:03:14.468Z,52.00
2019-03-18T13:06:03.024Z,50.40
2019-03-18T13:08:51.446Z,48.80
2019-03-18T13:11:39.873Z,48.30
2019-03-18T13:14:21.080Z,48.70
2019-03-18T13:17:02.724Z,49.30
2019-03-18T13:19:44.357Z,48.00
2019-03-18T13:22:25.693Z,47.30
2019-03-18T13:25:07.176Z,47.70
2019-03-18T13:31:07.034Z,49.30
2019-03-18T13:33:48.764Z,49.00
2019-03-18T13:36:30.206Z,49.40
2019-03-18T13:39:11.819Z,48.90
2019-03-18T13:45:01.901Z,50.20
2019-03-18T13:47:43.160Z,53.10
2019-03-18T13:50:24.088Z,52.90
2019-03-18T13:53:05.583Z,53.10
2019-03-18T13:55:46.302Z,53.20
2019-03-18T13:58:27.255Z,53.40
2019-03-18T14:01:08.878Z,53.60
2019-03-18T14:03:49.501Z,53.20
2019-03-18T14:06:19.078Z,53.70
2019-03-18T14:09:08.034Z,54.80
2019-03-18T14:11:56.412Z,56.10
2019-03-18T14:14:37.042Z,57.40
2019-03-18T14:17:06.534Z,60.20
2019-03-18T14:19:55.635Z,69.60
2019-03-18T14:22:44.011Z,74.30
2019-03-18T14:25:32.444Z,76.80
2019-03-18T14:28:20.926Z,74.40
2019-03-18T14:31:09.364Z,72.60
2019-03-18T14:33:57.711Z,72.30
2019-03-18T14:36:46.431Z,73.80
2019-03-18T14:39:35.258Z,74.50
2019-03-18T14:42:23.926Z,75.90
2019-03-18T14:45:13.828Z,76.40
2019-03-18T14:48:02.300Z,77.30
2019-03-18T14:54:24.087Z,76.70
2019-03-18T14:56:53.380Z,77.10
2019-03-18T14:59:42.149Z,76.90
2019-03-18T15:02:30.587Z,77.60
2019-03-18T15:05:19.002Z,77.00
2019-03-18T15:08:07.455Z,76.50
2019-03-18T15:10:56.180Z,76.30
2019-03-18T15:13:44.935Z,74.70
2019-03-18T15:16:26.121Z,74.40
2019-03-18T15:19:06.903Z,73.00
2019-03-18T15:21:58.056Z,73.10
2019-03-18T15:30:57.705Z,73.90
2019-03-18T15:33:39.167Z,72.30
2019-03-18T15:39:40.004Z,72.70
2019-03-18T15:42:20.807Z,72.70
2019-03-18T15:45:02.931Z,71.20
2019-03-18T15:47:44.626Z,71.20
2019-03-18T15:50:25.760Z,71.40
2019-03-18T15:53:07.005Z,68.00
2019-03-18T15:55:47.844Z,63.60
2019-03-18T15:58:28.649Z,63.50
2019-03-18T16:01:10.088Z,63.30
2019-03-18T16:03:51.509Z,64.10
2019-03-18T16:06:20.876Z,65.30
2019-03-18T16:09:09.251Z,65.10
2019-03-18T16:11:38.770Z,65.90
2019-03-18T16:14:19.695Z,66.00
2019-03-18T16:17:02.371Z,66.10
2019-03-18T16:22:37.148Z,64.80
2019-03-18T16:28:14.368Z,65.90
2019-03-18T16:34:46.134Z,64.70
2019-03-18T16:40:23.373Z,65.00
2019-03-18T16:43:11.756Z,65.50
2019-03-18T16:46:00.488Z,65.40
2019-03-18T16:48:48.949Z,65.90
2019-03-18T16:51:37.318Z,65.60
2019-03-18T16:54:26.172Z,65.60
2019-03-18T16:57:14.534Z,71.80
2019-03-18T17:00:22.075Z,76.40
2019-03-18T17:03:10.548Z,78.70
2019-03-18T17:09:42.326Z,81.10
2019-03-18T17:12:30.805Z,85.60
2019-03-18T17:15:12.318Z,90.10
2019-03-18T17:17:54.045Z,92.50
2019-03-18T17:23:43.759Z,94.20
2019-03-18T17:26:25.076Z,94.70
2019-03-18T17:32:11.410Z,96.20
2019-03-18T17:34:52.412Z,96.50
2019-03-18T17:37:33.258Z,96.80
2019-03-18T17:40:14.021Z,97.00
2019-03-18T17:42:54.956Z,97.20
2019-03-18T17:45:54.609Z,96.80
2019-03-18T17:48:54.161Z,96.70
2019-03-18T17:55:10.855Z,98.00
2019-03-18T18:04:01.700Z,97.90
2019-03-18T18:06:43.105Z,97.90
2019-03-18T18:15:51.685Z,99.10
2019-03-18T18:18:33.114Z,98.00
2019-03-18T18:21:02.462Z,98.40
2019-03-18T18:23:49.558Z,98.90
2019-03-18T18:29:26.774Z,99.70
2019-03-18T18:32:15.115Z,99.90
2019-03-18T18:35:03.676Z,99.70
2019-03-18T18:41:03.861Z,99.90
2019-03-18T18:43:44.522Z,99.90
2019-03-18T18:46:25.128Z,99.90
2019-03-18T18:55:20.607Z,99.90
2019-03-18T18:58:02.067Z,99.90
2019-03-18T19:00:43.391Z,99.90
2019-03-18T19:03:24.777Z,99.90
2019-03-18T19:05:54.461Z,99.90
2019-03-18T19:08:42.918Z,99.80
2019-03-18T19:11:31.500Z,99.10
2019-03-18T19:14:12.131Z,98.70
2019-03-18T19:16:53.026Z,98.60
2019-03-18T19:19:34.050Z,99.00
2019-03-18T19:22:14.814Z,99.00
2019-03-18T19:24:56.030Z,98.80
2019-03-18T19:27:37.298Z,99.80
2019-03-18T19:30:18.786Z,99.90
2019-03-18T19:32:59.726Z,99.90
2019-03-18T19:35:40.787Z,99.90
2019-03-18T19:38:21.949Z,99.90
2019-03-18T19:41:03.063Z,99.90
2019-03-18T19:43:43.860Z,99.90
2019-03-18T19:46:24.910Z,99.90
2019-03-18T19:49:05.786Z,99.90
2019-03-18T19:54:55.759Z,99.20
2019-03-18T19:57:36.424Z,99.00
2019-03-18T20:00:18.008Z,98.70
2019-03-18T20:02:48.130Z,98.80
2019-03-18T20:05:36.620Z,99.10
2019-03-18T20:11:13.077Z,99.90
2019-03-18T20:13:54.654Z,99.90
2019-03-18T20:16:35.388Z,99.90
2019-03-18T20:19:16.975Z,99.80
2019-03-18T20:21:58.314Z,99.20
2019-03-18T20:24:39.291Z,99.10
2019-03-18T20:27:18.899Z,99.60
2019-03-18T20:30:07.961Z,99.90
2019-03-18T20:32:56.428Z,99.90
2019-03-18T20:35:44.907Z,99.90
2019-03-18T20:41:22.030Z,99.90
2019-03-18T20:44:10.474Z,99.90
2019-03-18T20:46:58.996Z,99.90
2019-03-18T20:50:23.891Z,99.90
2019-03-18T20:53:12.336Z,99.90
2019-03-18T20:56:01.287Z,99.90
2019-03-18T20:58:50.183Z,99.90
2019-03-18T21:01:38.658Z,99.90
2019-03-18T21:04:27.698Z,99.90
2019-03-18T21:07:17.208Z,99.90
2019-03-18T21:10:06.616Z,99.90
2019-03-18T21:12:55.220Z,99.90
2019-03-18T21:15:36.225Z,99.90
2019-03-18T21:18:17.680Z,99.90
2019-03-18T21:20:59.051Z,99.90
2019-03-18T21:23:39.774Z,99.90
2019-03-18T21:26:20.625Z,99.90
2019-03-18T21:32:20.981Z,99.90
2019-03-18T21:35:02.546Z,99.90
2019-03-18T21:37:43.671Z,99.90
2019-03-18T21:40:25.357Z,99.90
2019-03-18T21:43:06.623Z,99.90
2019-03-18T21:45:48.283Z,99.90
2019-03-18T21:48:29.606Z,99.90
2019-03-18T21:51:10.605Z,99.90
2019-03-18T21:53:50.138Z,99.90
2019-03-18T21:56:38.599Z,99.90
2019-03-18T21:59:27.048Z,99.90
2019-03-18T22:02:15.887Z,99.90
2019-03-18T22:05:04.564Z,99.90
2019-03-18T22:11:22.821Z,99.90
2019-03-18T22:14:04.448Z,99.90
2019-03-18T22:16:46.026Z,99.90
2019-03-18T22:19:27.344Z,99.90
2019-03-18T22:25:13.716Z,99.90
2019-03-18T22:27:53.308Z,99.90
2019-03-18T22:30:41.757Z,99.90
2019-03-18T22:33:30.850Z,99.90
2019-03-18T22:36:19.304Z,99.90
2019-03-18T22:39:08.692Z,99.90
2019-03-18T22:41:57.159Z,99.90
2019-03-18T22:44:45.656Z,99.90
2019-03-18T22:47:34.128Z,99.90
2019-03-18T22:50:22.952Z,99.90
2019-03-18T22:53:11.556Z,99.90
2019-03-18T22:56:00.698Z,99.90
2019-03-18T22:58:49.201Z,99.90
2019-03-18T23:01:37.647Z,99.90
2019-03-18T23:04:26.472Z,99.90
2019-03-18T23:07:15.243Z,99.90
2019-03-18T23:13:02.694Z,99.90
2019-03-18T23:15:43.997Z,99.90
2019-03-18T23:18:25.406Z,99.90
2019-03-18T23:21:06.833Z,99.90
2019-03-18T23:23:36.249Z,99.90
2019-03-18T23:28:54.731Z,99.90
2019-03-18T23:31:43.179Z,99.90
2019-03-18T23:34:31.648Z,99.90
2019-03-18T23:37:20.106Z,99.90
2019-03-18T23:40:08.691Z,99.90
2019-03-18T23:42:57.142Z,99.90
2019-03-18T23:45:26.926Z,99.90
2019-03-18T23:48:15.789Z,99.90
2019-03-18T23:51:04.233Z,99.90
2019-03-18T23:53:52.829Z,99.90
2019-03-18T23:56:41.305Z,99.90
2019-03-18T23:59:30.190Z,99.90
